Wednesday, May 4, 2016, 10:48 PM EDT
Back to Local

KCXY, Harrisburg Capital City

Location: New Cumberland, PA, United States Lat: 40.217
Local Time: 10:48 PM EDT ( 2:48 GMT) Lon: -76.85
Time Zone: US/Eastern Elev: 347 ft

Show me the last for .
Show Decoded

2016-05-04 21:56 METAR KCXY 050156Z AUTO 11007KT 2 1/2SM -RA BR OVC008 11/09 A2972 RMK AO2 RAB31
                 CIG 006V011 SLP067 P0000 T01110094 =
2016-05-04 21:43 METAR KCXY 050143Z AUTO 11007KT 3SM -RA BR OVC008 12/09 A2973 RMK AO2 RAB31 CIG
                 006V012 P0000 T01170094 =
2016-05-04 20:56 METAR KCXY 050056Z AUTO 12009KT 5SM HZ BKN011 OVC019 12/09 A2972 RMK AO2 SLP064
                 T01220089 =
2016-05-04 20:04 METAR KCXY 050004Z 09006KT 5SM HZ OVC014 12/09 A2971 RMK AO2 T01220094 =
2016-05-04 19:56 METAR KCXY 042356Z 09007KT 5SM HZ OVC015 12/09 A2971 RMK AO2 SLP060 T01220094
                 10139 20122 53013 =
2016-05-04 18:56 METAR KCXY 042256Z 06007KT 10SM OVC016 13/09 A2968 RMK AO2 SLP053 T01330094 =
2016-05-04 17:56 METAR KCXY 042156Z 06008KT 10SM OVC016 13/09 A2968 RMK AO2 SLP051 T01330094 =
2016-05-04 16:56 METAR KCXY 042056Z 07007KT 10SM BKN015 OVC021 14/09 A2967 RMK AO2 SLP047
                 T01390094 56013 =
2016-05-04 16:26 METAR KCXY 042026Z 07006KT 10SM OVC014 14/09 A2967 RMK AO2 T01390094 =
2016-05-04 15:56 METAR KCXY 041956Z 09004KT 10SM OVC015 14/09 A2968 RMK AO2 SLP051 T01390089 =
2016-05-04 14:56 METAR KCXY 041856Z 07006KT 10SM OVC016 13/09 A2968 RMK AO2 SLP052 T01330094 =
2016-05-04 13:56 METAR KCXY 041756Z 06004KT 10SM BKN012 OVC017 13/09 A2971 RMK AO2 SLP060 60001
                 T01330094 10133 20117 57014 =
2016-05-04 12:56 METAR KCXY 041656Z 10007KT 10SM OVC010 13/09 A2971 RMK AO2 SLP063 T01280094 =
2016-05-04 11:56 METAR KCXY 041556Z 10006KT 6SM HZ OVC012 12/09 A2974 RMK AO2 SLP071 T01220094 =
2016-05-04 11:17 METAR KCXY 041517Z 10005KT 6SM BR OVC011 12/09 A2975 RMK AO2 T01170094 =
2016-05-04 10:56 METAR KCXY 041456Z 10007KT 6SM BR OVC009 12/09 A2975 RMK AO2 SLP074 60001
                 T01170094 55003 =
2016-05-04 10:46 METAR KCXY 041446Z 11007KT 6SM BR OVC009 12/09 A2975 RMK AO2 CIG 007V011
                 T01170094 =
2016-05-04 09:56 METAR KCXY 041356Z 09003KT 10SM OVC010 12/09 A2974 RMK AO2 SLP072 T01170089 =
2016-05-04 09:28 METAR KCXY 041328Z 12007KT 10SM BR OVC013 12/09 A2974 RMK AO2 T01170089 =
2016-05-04 09:12 METAR KCXY 041312Z 09006KT 10SM BR FEW009 OVC015 12/09 A2974 RMK AO2 T01170094 =
2016-05-04 08:56 METAR KCXY 041256Z 11007KT 5SM BR SCT008 OVC013 12/09 A2975 RMK AO2 RAB21E56
                 SLP074 P0001 T01170094 =
2016-05-04 08:18 METAR KCXY 041218Z 08006KT 6SM BR BKN010 OVC015 12/09 A2976 RMK AO2 CIG 007V013
                 T01220094 =
2016-05-04 08:11 METAR KCXY 041211Z 09004KT 6SM BR BKN008 OVC015 12/09 A2976 RMK AO2 T01170094 =
2016-05-04 07:56 METAR KCXY 041156Z 13005KT 6SM BR BKN010 BKN015 OVC020 12/09 A2976 RMK AO2
                 RAB27E38 CIG 008V013 SLP078 P0000 60006 70011 T01220094 10133 20122 53005 =
2016-05-04 07:48 METAR KCXY 041148Z 12004KT 6SM BR BKN014 OVC019 12/09 A2975 RMK AO2 RAB27E38
                 P0000 T01220094 =
2016-05-04 07:29 METAR KCXY 041129Z 12007KT 6SM -RA BR SCT014 OVC019 12/09 A2975 RMK AO2 RAB27
                 P0000 T01220094 =
2016-05-04 06:56 METAR KCXY 041056Z 13008KT 7SM OVC013 12/09 A2974 RMK AO2 SLP073 T01220094 =
2016-05-04 05:56 METAR KCXY 040956Z AUTO 12006KT 7SM FEW007 OVC012 12/10 A2974 RMK AO2 SLP072
                 T01220100 =
2016-05-04 05:31 METAR KCXY 040931Z AUTO 12006KT 5SM BR FEW006 OVC010 13/11 A2974 RMK AO2 CIG
                 007V012 T01280106 =
2016-05-04 05:10 METAR KCXY 040910Z AUTO 11003KT 7SM BKN011 OVC014 13/11 A2974 RMK AO2 CIG
                 008V012 T01280106 =
2016-05-04 04:56 METAR KCXY 040856Z AUTO 13003KT 8SM BKN009 OVC014 13/11 A2974 RMK AO2 RAB03E41
                 SLP072 P0002 60006 T01280106 57008 =
2016-05-04 04:47 METAR KCXY 040847Z AUTO 12004KT 7SM BKN009 OVC014 13/11 A2974 RMK AO2 RAB03E41
                 P0002 T01280106 =
2016-05-04 03:56 METAR KCXY 040756Z AUTO 11006KT 6SM BR OVC012 13/11 A2975 RMK AO2 RAE44 SLP075
                 P0001 T01280106 =
2016-05-04 03:46 METAR KCXY 040746Z AUTO 12005KT 6SM BR OVC012 13/11 A2975 RMK AO2 RAE44 P0001
                 T01280106 =
2016-05-04 03:18 METAR KCXY 040718Z AUTO 11003KT 4SM -RA BR BKN009 OVC014 13/11 A2975 RMK AO2 CIG
                 007V012 P0001 T01280111 =
2016-05-04 03:03 METAR KCXY 040703Z AUTO 12004KT 4SM -RA BR SCT009 OVC014 13/11 A2976 RMK AO2
                 P0001 T01330111 =
2016-05-04 02:56 METAR KCXY 040656Z AUTO 13006KT 4SM -RA BR SCT009 OVC015 13/11 A2976 RMK AO2
                 SLP077 P0003 T01330111 =
2016-05-04 02:47 METAR KCXY 040647Z AUTO 13006KT 4SM -RA BR SCT009 OVC015 13/11 A2976 RMK AO2
                 P0002 T01330111 =
2016-05-04 02:24 METAR KCXY 040624Z AUTO 11003KT 5SM -RA BR BKN015 BKN055 OVC080 13/11 A2976 RMK
                 AO2 P0000 T01330111 =
2016-05-04 01:56 METAR KCXY 040556Z AUTO 11007KT 5SM -RA BR SCT048 OVC070 13/11 A2977 RMK AO2
                 SLP081 P0004 60005 T01330111 10156 20133 58008 =
2016-05-04 01:26 METAR KCXY 040526Z AUTO 11006KT 4SM -RA BR FEW015 OVC047 13/11 A2977 RMK AO2
                 P0004 T01330111 =
2016-05-04 00:56 METAR KCXY 040456Z AUTO 12006KT 4SM RA FEW012 BKN017 OVC027 14/11 A2978 RMK AO2
                 RAB29 SLP087 P0001 T01390111 401830122 =
2016-05-03 23:56 METAR KCXY 040356Z AUTO 08004KT 7SM BKN010 OVC016 14/11 A2979 RMK AO2 CIG
                 009V012 SLP088 T01440111 =
2016-05-03 23:26 METAR KCXY 040326Z AUTO 11004KT 6SM HZ BKN013 OVC090 14/12 A2979 RMK AO2
                 T01440117 =
2016-05-03 23:04 METAR KCXY 040304Z AUTO 10006KT 7SM SCT017 OVC090 14/11 A2979 RMK AO2 T01440111
                 =
2016-05-03 22:56 METAR KCXY 040256Z AUTO 09005KT 7SM BKN016 BKN050 OVC090 14/11 A2979 RMK AO2
                 RAB16E43 SLP089 P0000 60000 T01440111 51003 =
2016-05-03 22:49 METAR KCXY 040249Z AUTO 10005KT 7SM BKN016 BKN021 OVC050 14/11 A2979 RMK AO2
                 RAB16E43 P0000 T01440111 =

Support USWX by starting your Amazon purchase here.